Time;durP1;ratioP1;P1;durP2;ratioP2;P2;SDS_P1;SDS_P2;PMS_P1;PMS_P2;Temp;Humidity;BMP_temperature;BMP_pressure;BME280_temperature;BME280_humidity;BME280_pressure;Samples;Min_cycle;Max_cycle;Signal;HPM_P1;HPM_P2
2022/11/15 00:00:53;;;;;;;26.37;23.13;;;;;21.20;99822.00;;;;2070318;28;20284;-49
2022/11/15 00:01:54;;;;;;;29.83;23.60;;;;;21.20;99824.00;;;;2069742;28;20631;-49
2022/11/15 00:02:54;;;;;;;26.60;22.20;;;;;21.20;99819.00;;;;2070585;28;20198;-49
2022/11/15 00:03:55;;;;;;;25.80;21.80;;;;;21.20;99823.00;;;;2070524;28;20722;-50
2022/11/15 00:04:55;;;;;;;25.17;21.43;;;;;21.20;99823.00;;;;2070591;28;20214;-48
2022/11/15 00:06:00;;;;;;;27.07;22.27;;;;;21.20;99819.00;;;;2070386;28;20261;-49
2022/11/15 00:07:00;;;;;;;24.92;21.10;;;;;21.20;99807.00;;;;2061502;28;20694;-49
2022/11/15 00:08:01;;;;;;;25.63;21.33;;;;;21.20;99809.00;;;;2062405;28;20225;-49
2022/11/15 00:09:01;;;;;;;24.83;20.90;;;;;21.20;99813.00;;;;2070749;28;20238;-49
2022/11/15 00:10:03;;;;;;;26.00;20.47;;;;;21.20;99820.00;;;;2070136;28;20213;-49
2022/11/15 00:11:03;;;;;;;23.52;20.30;;;;;21.20;99817.00;;;;2069737;28;20336;-49
2022/11/15 00:12:03;;;;;;;24.30;20.43;;;;;21.20;99813.00;;;;2069367;28;20352;-47
2022/11/15 00:13:08;;;;;;;23.47;19.60;;;;;21.20;99817.00;;;;2069996;28;20825;-49
2022/11/15 00:14:08;;;;;;;26.33;20.02;;;;;21.20;99813.00;;;;2070099;28;20210;-48
2022/11/15 00:15:09;;;;;;;23.90;19.17;;;;;21.20;99812.00;;;;2070064;28;20299;-49
2022/11/15 00:16:10;;;;;;;26.00;21.00;;;;;21.20;99810.00;;;;2069633;28;20222;-49
2022/11/15 00:17:10;;;;;;;23.25;19.40;;;;;21.10;99806.00;;;;2069461;28;20207;-49
2022/11/15 00:18:12;;;;;;;22.17;18.60;;;;;21.10;99800.00;;;;2069390;28;20219;-49
2022/11/15 00:19:12;;;;;;;21.70;18.08;;;;;21.10;99810.00;;;;2070094;28;20210;-49
2022/11/15 00:20:12;;;;;;;21.17;17.70;;;;;21.10;99798.00;;;;2070511;28;20720;-49
2022/11/15 00:21:13;;;;;;;21.83;18.13;;;;;21.10;99809.00;;;;2070547;28;20679;-49
2022/11/15 00:22:13;;;;;;;22.47;18.87;;;;;21.10;99800.00;;;;2069482;28;20245;-49
2022/11/15 00:23:14;;;;;;;19.70;17.60;;;;;21.10;99812.00;;;;2070558;28;20210;-50
2022/11/15 00:24:14;;;;;;;20.03;17.57;;;;;21.10;99801.00;;;;2070235;28;20237;-49
2022/11/15 00:25:14;;;;;;;19.53;17.17;;;;;21.10;99808.00;;;;2070576;28;20206;-49
2022/11/15 00:26:15;;;;;;;22.77;17.33;;;;;21.10;99799.00;;;;2070188;28;20206;-49
2022/11/15 00:27:15;;;;;;;20.87;17.00;;;;;21.10;99752.00;;;;2073619;28;21000;-49
2022/11/15 00:28:15;;;;;;;19.10;16.37;;;;;21.10;99807.00;;;;2074482;28;20593;-48
2022/11/15 00:29:16;;;;;;;19.53;16.17;;;;;21.10;99804.00;;;;2070594;28;20248;-49
2022/11/15 00:30:16;;;;;;;19.33;16.07;;;;;21.10;99812.00;;;;2070587;28;20537;-48
2022/11/15 00:31:16;;;;;;;18.30;15.20;;;;;21.10;99806.00;;;;2070496;28;20642;-47
2022/11/15 00:32:17;;;;;;;19.90;16.20;;;;;21.10;99808.00;;;;2069382;28;20218;-49
2022/11/15 00:33:17;;;;;;;17.53;15.60;;;;;21.10;99807.00;;;;2070301;28;20708;-49
2022/11/15 00:34:17;;;;;;;18.40;15.90;;;;;21.10;99804.00;;;;2070424;28;20221;-49
2022/11/15 00:35:18;;;;;;;19.97;15.50;;;;;21.10;99809.00;;;;2070410;28;20210;-49
2022/11/15 00:36:19;;;;;;;20.17;16.70;;;;;21.10;99823.00;;;;2070363;28;20225;-48
2022/11/15 00:37:19;;;;;;;19.93;15.80;;;;;21.10;99803.00;;;;2070148;28;20566;-50
2022/11/15 00:38:19;;;;;;;18.60;14.53;;;;;21.10;99803.00;;;;2070172;28;20768;-50
2022/11/15 00:39:20;;;;;;;16.80;14.23;;;;;21.10;99802.00;;;;2070502;28;20690;-51
2022/11/15 00:40:20;;;;;;;19.03;15.30;;;;;21.10;99804.00;;;;2070544;28;20736;-50
2022/11/15 00:41:20;;;;;;;18.00;14.33;;;;;21.10;99805.00;;;;2070208;28;20217;-51
2022/11/15 00:42:20;;;;;;;15.87;13.73;;;;;21.10;99812.00;;;;2069296;28;20210;-49
2022/11/15 00:43:21;;;;;;;15.73;13.53;;;;;21.10;99776.00;;;;2070150;28;20232;-51
2022/11/15 00:44:21;;;;;;;16.50;14.10;;;;;21.10;99819.00;;;;2070567;28;20587;-49
2022/11/15 00:45:22;;;;;;;17.40;13.73;;;;;21.10;99819.00;;;;2070300;28;20636;-49
2022/11/15 00:46:22;;;;;;;16.53;13.13;;;;;21.10;99799.00;;;;2069901;28;20650;-49
2022/11/15 00:47:22;;;;;;;14.70;13.07;;;;;21.10;99804.00;;;;2070938;28;20210;-49
2022/11/15 00:48:23;;;;;;;17.20;13.07;;;;;21.10;99805.00;;;;2071397;28;20237;-49
2022/11/15 00:49:23;;;;;;;15.13;13.43;;;;;21.00;99805.00;;;;2071317;28;20214;-49
2022/11/15 00:50:23;;;;;;;16.00;12.90;;;;;21.10;99803.00;;;;2071389;28;20584;-48
2022/11/15 00:51:24;;;;;;;14.27;12.77;;;;;21.00;99803.00;;;;2072174;28;20666;-49
2022/11/15 00:52:24;;;;;;;15.63;13.07;;;;;21.10;99803.00;;;;2071133;28;20277;-49
2022/11/15 00:53:24;;;;;;;14.53;12.47;;;;;21.10;99800.00;;;;2071790;28;20214;-49
2022/11/15 00:54:25;;;;;;;14.07;12.57;;;;;21.00;99807.00;;;;2071803;28;20198;-49
2022/11/15 00:55:25;;;;;;;15.43;12.60;;;;;21.00;99795.00;;;;2068711;28;20284;-49
2022/11/15 00:56:25;;;;;;;13.33;11.93;;;;;20.90;99799.00;;;;2071973;28;20222;-49
2022/11/15 00:57:26;;;;;;;13.17;11.77;;;;;21.00;99802.00;;;;2072070;28;20226;-49
2022/11/15 00:58:26;;;;;;;13.53;12.10;;;;;21.00;99800.00;;;;2071775;28;20198;-48
2022/11/15 00:59:26;;;;;;;14.10;11.50;;;;;21.00;99804.00;;;;2071769;28;20216;-49
2022/11/15 01:00:27;;;;;;;14.30;11.73;;;;;21.00;99802.00;;;;2072077;28;20737;-50
2022/11/15 01:01:27;;;;;;;13.43;11.30;;;;;21.10;99798.00;;;;2072019;28;21027;-48
2022/11/15 01:02:28;;;;;;;13.50;11.80;;;;;21.10;99802.00;;;;2071261;28;20753;-50
2022/11/15 01:03:28;;;;;;;13.87;11.50;;;;;21.00;99804.00;;;;2071033;28;20674;-49
2022/11/15 01:04:28;;;;;;;13.10;11.70;;;;;21.00;99809.00;;;;2070793;28;20221;-49
2022/11/15 01:05:29;;;;;;;13.73;11.20;;;;;21.00;99812.00;;;;2061703;28;20229;-50
2022/11/15 01:06:29;;;;;;;13.50;10.80;;;;;21.00;99806.00;;;;2079451;28;20638;-50
2022/11/15 01:07:29;;;;;;;11.70;10.50;;;;;21.00;99811.00;;;;2078031;28;20593;-49
2022/11/15 01:08:30;;;;;;;11.73;10.47;;;;;21.00;99819.00;;;;2072162;28;20236;-50
2022/11/15 01:09:30;;;;;;;13.33;11.40;;;;;21.00;99809.00;;;;2071902;28;20209;-50
2022/11/15 01:10:30;;;;;;;15.40;11.03;;;;;21.00;99809.00;;;;2071877;28;20214;-49
2022/11/15 01:11:31;;;;;;;14.13;11.10;;;;;21.00;99813.00;;;;2068342;28;20276;-49
2022/11/15 01:12:31;;;;;;;12.23;10.93;;;;;21.00;99809.00;;;;2071048;28;20217;-49
2022/11/15 01:13:32;;;;;;;13.10;10.10;;;;;21.00;99797.00;;;;2071323;28;20575;-50
2022/11/15 01:14:33;;;;;;;11.37;9.90;;;;;21.00;99810.00;;;;2071706;28;20699;-50
2022/11/15 01:15:33;;;;;;;11.53;10.13;;;;;21.00;99808.00;;;;2071763;28;20452;-49
2022/11/15 01:16:33;;;;;;;10.73;9.63;;;;;21.10;99808.00;;;;2071650;28;20229;-49
2022/11/15 01:17:34;;;;;;;10.63;9.57;;;;;21.00;99803.00;;;;2071799;28;20194;-49
2022/11/15 01:18:34;;;;;;;11.80;10.13;;;;;21.00;99804.00;;;;2071817;28;20210;-49
2022/11/15 01:19:34;;;;;;;11.57;10.30;;;;;21.00;99801.00;;;;2071925;28;20218;-50
2022/11/15 01:20:39;;;;;;;10.80;9.70;;;;;21.00;99799.00;;;;2071709;28;20248;-50
2022/11/15 01:21:39;;;;;;;10.73;9.50;;;;;21.00;99803.00;;;;2071572;28;20218;-49
2022/11/15 01:22:40;;;;;;;11.30;10.10;;;;;21.00;99802.00;;;;2070996;28;20238;-50
2022/11/15 01:23:40;;;;;;;10.20;8.80;;;;;21.00;99798.00;;;;2071707;28;20581;-50
2022/11/15 01:24:40;;;;;;;10.27;9.17;;;;;21.00;99803.00;;;;2071656;28;20783;-50
2022/11/15 01:25:41;;;;;;;11.77;9.70;;;;;21.00;99794.00;;;;2071586;28;20650;-50
2022/11/15 01:26:41;;;;;;;9.57;8.53;;;;;21.00;99796.00;;;;2071567;28;20571;-50
2022/11/15 01:27:41;;;;;;;9.70;8.33;;;;;21.00;99796.00;;;;2071791;28;20578;-48
2022/11/15 01:28:42;;;;;;;10.30;8.77;;;;;21.00;99795.00;;;;2071935;28;20647;-49
2022/11/15 01:29:42;;;;;;;11.70;9.30;;;;;21.00;99792.00;;;;2071678;28;20571;-50
2022/11/15 01:30:42;;;;;;;10.50;9.40;;;;;21.00;99788.00;;;;2071643;28;20214;-49
2022/11/15 01:31:43;;;;;;;10.43;9.20;;;;;21.00;99788.00;;;;2071566;28;20297;-50
2022/11/15 01:32:43;;;;;;;11.10;8.87;;;;;21.00;99786.00;;;;2071048;28;20217;-50
2022/11/15 01:33:43;;;;;;;8.93;7.80;;;;;21.00;99793.00;;;;2071245;28;20229;-49
2022/11/15 01:34:44;;;;;;;10.13;9.03;;;;;21.00;99789.00;;;;2071467;28;20300;-49
2022/11/15 01:35:44;;;;;;;10.13;8.90;;;;;21.00;99784.00;;;;2071564;28;20228;-49
2022/11/15 01:36:44;;;;;;;10.07;8.47;;;;;21.00;99786.00;;;;2071410;28;20214;-49
2022/11/15 01:37:45;;;;;;;10.30;8.47;;;;;21.00;99786.00;;;;2071881;28;20299;-50
2022/11/15 01:38:45;;;;;;;9.33;8.33;;;;;21.00;99783.00;;;;2071458;28;20218;-50
2022/11/15 01:39:45;;;;;;;8.30;7.43;;;;;21.00;99781.00;;;;2071813;28;20265;-48
2022/11/15 01:40:45;;;;;;;8.30;7.40;;;;;21.00;99785.00;;;;2071589;28;20225;-49
2022/11/15 01:41:46;;;;;;;8.90;8.00;;;;;21.00;99781.00;;;;2065900;28;20214;-49
2022/11/15 01:42:46;;;;;;;9.57;8.23;;;;;21.00;99782.00;;;;2070903;28;20466;-47
2022/11/15 01:43:51;;;;;;;8.30;7.47;;;;;21.00;99772.00;;;;2071412;28;20218;-47
2022/11/15 01:44:54;;;;;;;10.07;8.52;;;;;21.00;99770.00;;;;2075592;28;20305;-50
2022/11/15 01:46:01;;;;;;;9.20;7.45;;;;;20.90;99783.00;;;;2078134;28;20217;-49
2022/11/15 01:47:05;;;;;;;8.57;7.68;;;;;21.00;99778.00;;;;2071854;28;20225;-50
2022/11/15 01:48:07;;;;;;;9.73;7.75;;;;;20.90;99782.00;;;;2071009;28;20626;-49
2022/11/15 01:49:12;;;;;;;8.02;7.22;;;;;21.00;99773.00;;;;2063245;28;20222;-48
2022/11/15 01:50:15;;;;;;;8.45;7.65;;;;;21.00;99771.00;;;;2064020;28;20281;-50
2022/11/15 01:51:16;;;;;;;8.48;7.25;;;;;20.90;99772.00;;;;2071374;28;20514;-49
2022/11/15 01:52:18;;;;;;;8.90;7.40;;;;;20.90;99771.00;;;;2077575;28;20303;-50
2022/11/15 01:53:19;;;;;;;9.80;7.68;;;;;20.90;99776.00;;;;2070874;28;20238;-49
2022/11/15 01:54:20;;;;;;;7.78;6.95;;;;;20.90;99781.00;;;;2071034;28;20210;-50
2022/11/15 01:55:22;;;;;;;12.80;8.10;;;;;21.00;99772.00;;;;2072845;28;20276;-49
2022/11/15 01:56:25;;;;;;;8.30;7.50;;;;;20.90;99775.00;;;;2071441;28;20226;-50
2022/11/15 01:57:25;;;;;;;8.27;6.53;;;;;20.80;99776.00;;;;2071419;28;20698;-49
2022/11/15 01:58:26;;;;;;;8.77;7.40;;;;;20.90;99773.00;;;;2070119;28;20321;-48
2022/11/15 01:59:26;;;;;;;8.00;7.20;;;;;20.90;99778.00;;;;2070705;28;21617;-56
2022/11/15 02:00:27;;;;;;;7.60;6.80;;;;;21.00;99783.00;;;;2071364;28;20384;-53
2022/11/15 02:01:27;;;;;;;8.23;6.80;;;;;21.00;99779.00;;;;2070260;28;20218;-48
2022/11/15 02:02:27;;;;;;;9.27;7.23;;;;;20.90;99776.00;;;;2061937;28;20219;-50
2022/11/15 02:03:33;;;;;;;7.87;7.07;;;;;20.90;99779.00;;;;2070508;28;20355;-49
2022/11/15 02:04:37;;;;;;;9.05;7.28;;;;;20.90;99772.00;;;;2070876;28;20292;-50
2022/11/15 02:05:38;;;;;;;7.63;6.85;;;;;20.90;99774.00;;;;2070206;28;20690;-50
2022/11/15 02:06:38;;;;;;;7.80;6.27;;;;;20.90;99776.00;;;;2062903;28;20277;-49
2022/11/15 02:07:38;;;;;;;8.40;6.70;;;;;20.90;99774.00;;;;2062765;28;20751;-49
2022/11/15 02:08:39;;;;;;;7.03;6.33;;;;;20.90;99765.00;;;;2070485;28;20860;-50
2022/11/15 02:09:39;;;;;;;8.40;7.00;;;;;20.90;99764.00;;;;2070512;28;20710;-50
2022/11/15 02:10:40;;;;;;;7.00;6.30;;;;;20.90;99764.00;;;;2062250;28;20691;-50
2022/11/15 02:11:40;;;;;;;7.10;6.30;;;;;20.90;99768.00;;;;2062052;28;20238;-48
2022/11/15 02:12:41;;;;;;;6.90;6.20;;;;;20.90;99761.00;;;;2069768;28;20218;-49
2022/11/15 02:13:41;;;;;;;6.87;5.83;;;;;20.90;99766.00;;;;2070094;28;20206;-49
2022/11/15 02:14:43;;;;;;;6.57;5.97;;;;;20.90;99768.00;;;;2062302;28;20700;-49
2022/11/15 02:16:14;;;;;;;6.30;5.60;;;;;20.90;99762.00;;;;2062304;28;21040;-50
2022/11/15 02:17:41;;;;;;;6.57;5.97;;;;;20.90;99764.00;;;;2045604;28;20271;-48
2022/11/15 02:18:50;;;;;;;6.72;6.00;;;;;20.90;99768.00;;;;2071797;28;20213;-50
2022/11/15 02:20:26;;;;;;;6.55;5.95;;;;;20.90;99759.00;;;;2064560;28;20219;-49
2022/11/15 02:21:44;;;;;;;7.43;6.68;;;;;20.90;99757.00;;;;2056033;28;20272;-49
2022/11/15 02:23:05;;;;;;;7.65;6.15;;;;;20.90;99756.00;;;;2078350;28;20271;-49
2022/11/15 02:24:16;;;;;;;6.97;5.60;;;;;20.90;99759.00;;;;2078543;28;20217;-49
2022/11/15 02:25:50;;;;;;;6.47;5.88;;;;;20.90;99744.00;;;;2078072;28;20218;-49
2022/11/15 02:26:57;;;;;;;6.78;5.70;;;;;20.90;99759.00;;;;2079200;28;20341;-49
2022/11/15 02:28:34;;;;;;;5.57;4.93;;;;;20.90;99754.00;;;;2079580;28;20597;-49
2022/11/15 02:29:56;;;;;;;6.53;5.85;;;;;20.90;99758.00;;;;2078608;28;20815;-49
2022/11/15 02:31:03;;;;;;;6.13;5.30;;;;;20.90;99749.00;;;;2078609;28;20408;-49
2022/11/15 02:32:12;;;;;;;5.70;5.20;;;;;20.90;99747.00;;;;2077518;28;20796;-49
2022/11/15 02:33:49;;;;;;;6.85;6.18;;;;;20.90;99751.00;;;;2070585;28;20214;-50
2022/11/15 02:35:02;;;;;;;6.18;5.57;;;;;20.90;99743.00;;;;2076672;28;20682;-49
2022/11/15 02:36:05;;;;;;;6.15;5.43;;;;;20.90;99738.00;;;;2078568;28;20222;-51
2022/11/15 02:37:23;;;;;;;6.10;5.50;;;;;20.80;99744.00;;;;2078521;28;20749;-50
2022/11/15 02:38:41;;;;;;;5.18;4.68;;;;;20.90;99740.00;;;;2078987;28;20593;-49
2022/11/15 02:39:45;;;;;;;5.57;5.07;;;;;20.90;99749.00;;;;2079204;28;20216;-50
2022/11/15 02:41:07;;;;;;;5.47;4.80;;;;;20.80;99739.00;;;;2078389;28;20245;-50
2022/11/15 02:43:56;;;;;;;5.60;4.97;;;;;20.90;99739.00;;;;2047351;28;20220;-49
2022/11/15 02:44:55;;;;;;;5.60;5.10;;;;;20.90;99747.00;;;;2065705;28;20611;-48
2022/11/15 02:46:03;;;;;;;5.13;4.63;;;;;20.80;99743.00;;;;2067082;28;20226;-49
2022/11/15 02:47:15;;;;;;;5.70;5.10;;;;;20.80;99742.00;;;;2070111;28;20236;-50
2022/11/15 02:48:15;;;;;;;5.50;5.00;;;;;20.80;99743.00;;;;2065752;28;20699;-49
2022/11/15 02:49:16;;;;;;;5.13;4.63;;;;;20.80;99743.00;;;;2071693;28;20242;-49
2022/11/15 02:50:18;;;;;;;5.63;5.00;;;;;20.80;99741.00;;;;2070611;28;20214;-50
2022/11/15 02:51:18;;;;;;;5.93;5.32;;;;;20.80;99733.00;;;;2078525;28;20213;-49
2022/11/15 02:52:23;;;;;;;5.43;4.70;;;;;20.80;99742.00;;;;2069264;28;20238;-49
2022/11/15 02:53:24;;;;;;;5.47;4.97;;;;;20.80;99730.00;;;;2078582;28;20218;-49
2022/11/15 02:54:26;;;;;;;5.97;5.07;;;;;20.80;99740.00;;;;2079194;28;20221;-50
2022/11/15 02:55:34;;;;;;;7.03;4.72;;;;;20.80;99746.00;;;;2073144;28;20214;-49
2022/11/15 02:56:34;;;;;;;5.43;4.90;;;;;20.80;99740.00;;;;2070447;28;20249;-53
2022/11/15 02:57:58;;;;;;;5.67;4.83;;;;;20.90;99727.00;;;;2071119;28;20551;-52
2022/11/15 02:59:13;;;;;;;5.50;4.55;;;;;20.80;99741.00;;;;2062328;28;20222;-50
2022/11/15 03:00:20;;;;;;;5.75;4.75;;;;;20.90;99739.00;;;;2066205;28;20214;-51
2022/11/15 03:01:28;;;;;;;5.70;4.82;;;;;20.80;99735.00;;;;2070346;28;20241;-50
2022/11/15 03:02:57;;;;;;;6.30;5.18;;;;;20.80;99734.00;;;;2069322;28;20674;-50
2022/11/15 03:04:11;;;;;;;4.88;4.20;;;;;20.80;99738.00;;;;2064813;28;20252;-49
2022/11/15 03:05:14;;;;;;;4.55;4.15;;;;;20.80;99735.00;;;;2063754;28;20660;-49
2022/11/15 03:06:36;;;;;;;5.60;4.97;;;;;20.80;99734.00;;;;2070577;28;20219;-50
2022/11/15 03:07:57;;;;;;;4.50;4.10;;;;;20.80;99738.00;;;;2070492;28;20601;-49
2022/11/15 03:08:58;;;;;;;7.45;4.45;;;;;20.80;99734.00;;;;2070174;28;20785;-50
2022/11/15 03:10:19;;;;;;;5.17;4.67;;;;;20.80;99721.00;;;;2070013;28;20222;-50
2022/11/15 03:11:20;;;;;;;5.90;4.80;;;;;20.80;99731.00;;;;2070122;28;20225;-50
2022/11/15 03:12:26;;;;;;;4.15;3.75;;;;;20.80;99738.00;;;;2045745;28;20294;-50
2022/11/15 03:14:20;;;;;;;4.95;4.00;;;;;20.80;99733.00;;;;2062673;28;20210;-50
2022/11/15 03:15:40;;;;;;;4.90;4.15;;;;;20.80;99733.00;;;;2045270;28;20212;-50
2022/11/15 03:16:49;;;;;;;4.90;4.40;;;;;20.80;99743.00;;;;2066138;28;20218;-50
2022/11/15 03:17:56;;;;;;;5.13;4.40;;;;;20.80;99741.00;;;;2069367;28;20776;-50
2022/11/15 03:19:06;;;;;;;8.48;4.88;;;;;20.80;99730.00;;;;2067577;28;20305;-50
2022/11/15 03:20:07;;;;;;;5.40;4.28;;;;;20.80;99739.00;;;;2077067;28;20333;-49
2022/11/15 03:21:08;;;;;;;4.63;4.22;;;;;20.80;99742.00;;;;2070332;28;20400;-49
2022/11/15 03:22:11;;;;;;;4.43;3.90;;;;;20.80;99734.00;;;;2067611;28;20276;-52
2022/11/15 03:23:11;;;;;;;5.47;4.57;;;;;20.80;99742.00;;;;2069930;28;21007;-51
2022/11/15 03:24:12;;;;;;;4.23;3.83;;;;;20.80;99746.00;;;;2069785;28;20214;-49
2022/11/15 03:25:16;;;;;;;4.73;4.30;;;;;20.80;99751.00;;;;2061999;28;20222;-49
2022/11/15 03:26:16;;;;;;;3.90;3.60;;;;;20.80;99747.00;;;;2061839;28;20595;-50
2022/11/15 03:27:18;;;;;;;4.40;3.87;;;;;20.80;99737.00;;;;2054173;28;20242;-50
2022/11/15 03:28:39;;;;;;;4.88;4.38;;;;;20.80;99733.00;;;;2045965;28;20303;-50
2022/11/15 03:29:41;;;;;;;4.28;3.88;;;;;20.80;99745.00;;;;2058449;28;20875;-55
2022/11/15 03:30:41;;;;;;;4.75;4.30;;;;;20.80;99734.00;;;;2064373;28;20214;-50
2022/11/15 03:31:47;;;;;;;5.40;4.23;;;;;20.80;99754.00;;;;2069827;28;20210;-49
2022/11/15 03:32:51;;;;;;;4.10;3.70;;;;;20.80;99735.00;;;;2054481;28;20372;-50
2022/11/15 03:33:51;;;;;;;5.03;4.55;;;;;20.80;99734.00;;;;2061519;28;20309;-50
2022/11/15 03:34:56;;;;;;;4.37;3.97;;;;;20.80;99741.00;;;;2070174;28;20659;-50
2022/11/15 03:35:56;;;;;;;4.60;4.00;;;;;20.80;99732.00;;;;2078168;28;20236;-49
2022/11/15 03:36:56;;;;;;;5.37;3.97;;;;;20.80;99730.00;;;;2078158;28;20224;-48
2022/11/15 03:38:14;;;;;;;4.67;4.03;;;;;20.80;99732.00;;;;2064713;28;20630;-49
2022/11/15 03:39:14;;;;;;;4.63;4.22;;;;;20.80;99730.00;;;;2058095;28;20603;-49
2022/11/15 03:40:16;;;;;;;4.60;4.00;;;;;20.70;99725.00;;;;2062033;28;20214;-49
2022/11/15 03:41:23;;;;;;;4.65;4.13;;;;;20.70;99727.00;;;;2062172;28;20218;-49
2022/11/15 03:42:43;;;;;;;4.55;3.67;;;;;20.70;99735.00;;;;2061052;28;20210;-50
2022/11/15 03:44:04;;;;;;;5.40;4.40;;;;;20.80;99733.00;;;;2064319;28;20252;-50
2022/11/15 03:45:15;;;;;;;4.50;4.10;;;;;20.70;99734.00;;;;2070095;28;20221;-48
2022/11/15 03:46:23;;;;;;;4.43;3.95;;;;;20.80;99725.00;;;;2070480;28;20214;-50
2022/11/15 03:47:33;;;;;;;4.22;3.83;;;;;20.80;99724.00;;;;2067376;28;20210;-50
2022/11/15 03:48:35;;;;;;;4.43;4.03;;;;;20.80;99725.00;;;;2063393;28;20234;-50
2022/11/15 03:49:37;;;;;;;4.40;4.00;;;;;20.70;99721.00;;;;2070020;28;20297;-50
2022/11/15 03:50:37;;;;;;;4.60;4.20;;;;;20.70;99729.00;;;;2069525;28;20268;-50
2022/11/15 03:51:38;;;;;;;3.90;3.60;;;;;20.80;99720.00;;;;2046192;28;20540;-49
2022/11/15 03:52:38;;;;;;;4.50;3.93;;;;;20.80;99733.00;;;;2053008;28;20338;-50
2022/11/15 03:53:38;;;;;;;5.20;4.63;;;;;20.70;99721.00;;;;2070196;28;20248;-50
2022/11/15 03:54:53;;;;;;;4.10;3.70;;;;;20.70;99726.00;;;;2061489;28;20587;-50
2022/11/15 03:55:53;;;;;;;4.10;3.70;;;;;20.70;99726.00;;;;2055362;28;20281;-50
2022/11/15 03:56:54;;;;;;;4.67;4.10;;;;;20.70;99722.00;;;;2078236;28;20275;-50
2022/11/15 03:57:56;;;;;;;4.60;4.20;;;;;20.70;99721.00;;;;2069850;28;20202;-50
2022/11/15 03:58:56;;;;;;;3.85;3.30;;;;;20.50;99720.00;;;;2070189;28;20280;-48
2022/11/15 03:59:57;;;;;;;4.30;3.90;;;;;20.70;99721.00;;;;2078169;28;20301;-49
2022/11/15 04:00:59;;;;;;;4.03;3.63;;;;;20.70;99716.00;;;;2078411;28;20220;-50
2022/11/15 04:01:59;;;;;;;4.45;3.88;;;;;20.70;99714.00;;;;2077966;28;20237;-50
2022/11/15 04:02:59;;;;;;;3.90;3.60;;;;;20.70;99714.00;;;;2078940;28;20217;-50
2022/11/15 04:04:00;;;;;;;4.03;3.50;;;;;20.70;99713.00;;;;2078879;28;20237;-50
2022/11/15 04:05:00;;;;;;;3.83;3.43;;;;;20.70;99711.00;;;;2078533;28;20625;-50
2022/11/15 04:06:00;;;;;;;3.77;3.47;;;;;20.70;99714.00;;;;2078569;28;20623;-50
2022/11/15 04:07:01;;;;;;;4.53;3.90;;;;;20.70;99709.00;;;;2078810;28;20363;-50
2022/11/15 04:08:01;;;;;;;4.37;3.77;;;;;20.70;99711.00;;;;2079005;28;20578;-49
2022/11/15 04:09:01;;;;;;;3.97;3.57;;;;;20.70;99713.00;;;;2077869;28;20281;-50
2022/11/15 04:10:02;;;;;;;4.77;3.80;;;;;20.80;99712.00;;;;2078973;28;20225;-50
2022/11/15 04:11:02;;;;;;;3.63;3.33;;;;;20.70;99708.00;;;;2078872;28;20209;-49
2022/11/15 04:12:03;;;;;;;3.97;3.53;;;;;20.70;99710.00;;;;2077529;28;20217;-50
2022/11/15 04:13:03;;;;;;;3.80;3.40;;;;;20.70;99708.00;;;;2078583;28;20228;-50
2022/11/15 04:14:04;;;;;;;3.77;3.40;;;;;20.70;99717.00;;;;2078517;28;20221;-50
2022/11/15 04:15:15;;;;;;;5.53;3.90;;;;;20.70;99710.00;;;;2078844;28;20220;-50
2022/11/15 04:16:15;;;;;;;3.70;3.40;;;;;20.70;99708.00;;;;2078745;28;20261;-49
2022/11/15 04:17:16;;;;;;;3.60;3.30;;;;;20.70;99698.00;;;;2078486;28;20262;-56
2022/11/15 04:18:16;;;;;;;3.93;3.37;;;;;20.70;99706.00;;;;2078943;28;20213;-54
2022/11/15 04:24:33;;;;;;;3.88;3.53;;;;;20.70;99703.00;;;;2070099;28;20686;-50
2022/11/15 04:25:34;;;;;;;3.83;3.43;;;;;20.70;99713.00;;;;2070433;28;20214;-50
2022/11/15 04:26:34;;;;;;;3.50;3.20;;;;;20.70;99704.00;;;;2069602;28;20213;-50
2022/11/15 04:27:34;;;;;;;3.83;3.53;;;;;20.70;99703.00;;;;2059909;28;20987;-50
2022/11/15 04:28:35;;;;;;;3.83;3.30;;;;;20.70;99709.00;;;;2070018;28;20752;-50
2022/11/15 04:29:35;;;;;;;3.80;3.50;;;;;20.70;99709.00;;;;2070850;28;20541;-50
2022/11/15 04:30:35;;;;;;;4.00;3.60;;;;;20.70;99712.00;;;;2069910;28;20931;-49
2022/11/15 04:31:36;;;;;;;3.27;2.97;;;;;20.70;99703.00;;;;2069891;28;20212;-50
2022/11/15 04:32:36;;;;;;;3.80;3.50;;;;;20.70;99710.00;;;;2069262;28;20209;-50
2022/11/15 04:33:36;;;;;;;3.50;3.20;;;;;20.70;99706.00;;;;2070044;28;20300;-50
2022/11/15 04:34:38;;;;;;;4.20;3.80;;;;;20.70;99704.00;;;;2069925;28;20214;-49
2022/11/15 04:35:38;;;;;;;4.10;3.65;;;;;20.70;99712.00;;;;2070217;28;20280;-50
2022/11/15 04:37:58;;;;;;;3.30;3.00;;;;;20.70;99710.00;;;;2069851;28;20222;-51
2022/11/15 04:38:58;;;;;;;3.50;3.20;;;;;20.70;99707.00;;;;2070690;28;20362;-50
2022/11/15 04:39:58;;;;;;;3.47;3.17;;;;;20.70;99706.00;;;;2070554;28;20214;-50
2022/11/15 04:40:59;;;;;;;4.80;3.40;;;;;20.60;99709.00;;;;2070491;28;20670;-50
2022/11/15 04:41:59;;;;;;;4.20;3.07;;;;;20.70;99711.00;;;;2068154;28;20218;-50
2022/11/15 04:42:59;;;;;;;4.20;3.50;;;;;20.70;99701.00;;;;2069775;28;20211;-50
2022/11/15 04:44:00;;;;;;;3.37;3.07;;;;;20.70;99704.00;;;;2070568;28;20202;-50
2022/11/15 04:45:00;;;;;;;4.30;3.83;;;;;20.70;99710.00;;;;2070512;28;20244;-49
2022/11/15 04:46:00;;;;;;;3.60;3.30;;;;;20.70;99704.00;;;;2070197;28;20256;-49
2022/11/15 04:47:01;;;;;;;3.47;3.17;;;;;20.70;99704.00;;;;2070371;28;20214;-50
2022/11/15 04:48:01;;;;;;;3.63;3.33;;;;;20.70;99708.00;;;;2070514;28;20206;-50
2022/11/15 04:49:02;;;;;;;3.50;3.20;;;;;20.70;99707.00;;;;2070309;28;20212;-50
2022/11/15 04:50:02;;;;;;;5.50;3.17;;;;;20.70;99715.00;;;;2070658;28;20214;-50
2022/11/15 04:51:03;;;;;;;3.27;2.97;;;;;20.60;99705.00;;;;2069708;28;20212;-49
2022/11/15 04:52:03;;;;;;;3.20;2.90;;;;;20.70;99705.00;;;;2069110;28;20297;-50
2022/11/15 04:53:03;;;;;;;3.83;3.53;;;;;20.60;99704.00;;;;2078823;28;20213;-50
2022/11/15 04:54:04;;;;;;;3.70;3.40;;;;;20.60;99711.00;;;;2078137;28;20221;-50
2022/11/15 04:55:04;;;;;;;3.30;3.00;;;;;20.60;99710.00;;;;2074522;28;20304;-50
2022/11/15 04:56:05;;;;;;;3.80;3.23;;;;;20.60;99707.00;;;;2069348;28;20217;-49
2022/11/15 04:57:05;;;;;;;3.47;3.17;;;;;20.60;99702.00;;;;2070322;28;20245;-50
2022/11/15 04:58:05;;;;;;;3.23;2.93;;;;;20.70;99699.00;;;;2070592;28;20210;-49
2022/11/15 04:59:06;;;;;;;5.00;2.73;;;;;20.60;99702.00;;;;2070386;28;20740;-50
2022/11/15 05:00:08;;;;;;;3.53;3.23;;;;;20.60;99707.00;;;;2077810;28;20214;-50
2022/11/15 05:01:14;;;;;;;3.83;3.38;;;;;20.60;99705.00;;;;2078617;28;20616;-50
2022/11/15 05:02:14;;;;;;;4.07;3.67;;;;;20.60;99707.00;;;;2077658;28;20221;-50
2022/11/15 05:04:33;;;;;;;4.13;3.20;;;;;20.60;99713.00;;;;2077409;28;20209;-49
2022/11/15 05:05:34;;;;;;;3.60;3.13;;;;;20.60;99714.00;;;;2078456;28;20221;-50
2022/11/15 05:06:34;;;;;;;3.80;3.40;;;;;20.60;99706.00;;;;2078503;28;20209;-50
2022/11/15 05:07:34;;;;;;;3.57;3.23;;;;;20.60;99705.00;;;;2078217;28;20271;-50
2022/11/15 05:08:35;;;;;;;3.70;3.40;;;;;20.60;99708.00;;;;2078668;28;20213;-50
2022/11/15 05:09:35;;;;;;;3.57;3.20;;;;;20.60;99711.00;;;;2078520;28;20268;-50
2022/11/15 05:10:35;;;;;;;3.70;3.17;;;;;20.60;99706.00;;;;2078465;28;20205;-50
2022/11/15 05:11:36;;;;;;;4.37;3.17;;;;;20.60;99712.00;;;;2078502;28;20209;-50
2022/11/15 05:12:36;;;;;;;3.23;2.93;;;;;20.60;99714.00;;;;2077647;28;20206;-49
2022/11/15 05:13:36;;;;;;;2.90;2.67;;;;;20.60;99707.00;;;;2078604;28;20236;-51
2022/11/15 05:14:37;;;;;;;3.63;3.33;;;;;20.60;99706.00;;;;2078274;28;20574;-50
2022/11/15 05:15:37;;;;;;;3.63;3.00;;;;;20.60;99713.00;;;;2078411;28;20626;-50
2022/11/15 05:16:37;;;;;;;3.17;2.93;;;;;20.60;99707.00;;;;2078616;28;20764;-50
2022/11/15 05:17:38;;;;;;;3.27;3.00;;;;;20.60;99714.00;;;;2078296;28;20685;-50
2022/11/15 05:18:41;;;;;;;4.07;3.67;;;;;20.60;99717.00;;;;2078524;28;20670;-50
2022/11/15 05:19:41;;;;;;;2.70;2.50;;;;;20.60;99717.00;;;;2078500;28;20271;-50
2022/11/15 05:20:42;;;;;;;3.40;3.10;;;;;20.60;99722.00;;;;2078383;28;20640;-50
2022/11/15 05:21:42;;;;;;;3.23;2.93;;;;;20.60;99716.00;;;;2077916;28;20214;-50
2022/11/15 05:22:42;;;;;;;3.23;2.93;;;;;20.60;99719.00;;;;2077756;28;20263;-49
2022/11/15 05:23:43;;;;;;;3.23;2.90;;;;;20.60;99717.00;;;;2072305;28;20218;-49
2022/11/15 05:24:43;;;;;;;3.70;3.40;;;;;20.60;99712.00;;;;2078341;28;20202;-49